Clear Sky Current Weather (METAR) For London Heathrow Airport

All times on the weather descriptions are local

Observed at 19:50 - (30 mins ago)

Clear Sky

19°C

Clear Sky
Clouds:
Wind: 190° at 11 knots, varying from 170° to 230
Visibility: Greater than 10km
QNH: 1015
Dew Point: 7°C
Runway in Use: Landing: Runway , Take-Off: Runway

Sunrise Today: 05:22
Sunset Today: 20:53

Forecast Weather (TAF) For London Heathrow Airport

Issued at 01:00 - (19 hrs 20 mins ago)


Runway in Use: Likely Runways 27L/R

Forecast valid until 01:00 on Friday

METAR/TAF RAW METAR / TAF

EGLL 311850Z 19011KT 170V230 CAVOK 19/07 Q1015

Weather Widget

Put weather from any of our airports on your website with our weather widget.

Find Another Search

Airport Search


Please Wait Please Wait - Loading
Close
Close

Login

Username:

Password:

Remember Me:

Remember me on this computer

Forgotten your password? Get a reset password sent to your registered e-mail address

Close

User Private Message

Subject:

Message: